Aviation Digital Data Service (ADDS)

Output produced by METARs form (0435 UTC 26 April 2019)
found at http://www.aviationweather.gov/metar/data/
 
Forecast for: ZUCK (CHONGQING/CHUNGK, CN)
Text: TAF ZUCK 260302Z 2606/2706 13003MPS 6000 FEW040 TX34/2608Z TN24/2622Z
Forecast period: 0600 UTC 26 April 2019 to 0600 UTC 27 April 2019
Forecast type: FROM: standard forecast or significant change
Winds: from the SE (130 degrees) at 7 MPH (6 knots; 3.1 m/s)
Visibility: 4 miles (6 km)
Ceiling: at least 12,000 feet AGL
Clouds: few clouds at 4000 feet AGL
Weather: no significant weather forecast for this period